sensor_id;sensor_type;location;lat;lon;timestamp;pressure;altitude;pressure_sealevel;temperature;humidity
63033;BME280;49121;38.932;-9.018;2022-09-19T00:00:16;100926.47;;;23.54;61.95
63033;BME280;49121;38.932;-9.018;2022-09-19T00:02:17;100931.09;;;23.52;61.88
63033;BME280;49121;38.932;-9.018;2022-09-19T00:04:22;100928.41;;;23.52;61.46
63033;BME280;49121;38.932;-9.018;2022-09-19T00:06:25;100926.00;;;23.47;61.46
63033;BME280;49121;38.932;-9.018;2022-09-19T00:08:28;100922.31;;;23.36;61.78
63033;BME280;49121;38.932;-9.018;2022-09-19T00:10:29;100917.88;;;23.35;61.48
63033;BME280;49121;38.932;-9.018;2022-09-19T00:15:13;100913.19;;;23.38;60.40
63033;BME280;49121;38.932;-9.018;2022-09-19T00:19:34;100918.38;;;23.27;60.75
63033;BME280;49121;38.932;-9.018;2022-09-19T00:21:36;100923.16;;;23.36;59.61
63033;BME280;49121;38.932;-9.018;2022-09-19T00:23:38;100929.69;;;23.32;58.59
63033;BME280;49121;38.932;-9.018;2022-09-19T00:25:58;100926.81;;;23.35;58.51
63033;BME280;49121;38.932;-9.018;2022-09-19T00:27:59;100932.19;;;23.35;58.18
63033;BME280;49121;38.932;-9.018;2022-09-19T00:30:01;100932.53;;;23.43;57.44
63033;BME280;49121;38.932;-9.018;2022-09-19T00:32:02;100930.22;;;23.52;56.33
63033;BME280;49121;38.932;-9.018;2022-09-19T00:34:03;100930.75;;;23.44;56.87
63033;BME280;49121;38.932;-9.018;2022-09-19T00:36:07;100935.13;;;23.45;56.27
63033;BME280;49121;38.932;-9.018;2022-09-19T00:38:11;100929.97;;;23.42;56.26
63033;BME280;49121;38.932;-9.018;2022-09-19T00:40:30;100922.09;;;23.53;55.87
63033;BME280;49121;38.932;-9.018;2022-09-19T00:42:32;100919.56;;;23.50;55.80
63033;BME280;49121;38.932;-9.018;2022-09-19T00:46:34;100921.38;;;23.64;55.13
63033;BME280;49121;38.932;-9.018;2022-09-19T00:48:34;100927.25;;;23.56;55.62
63033;BME280;49121;38.932;-9.018;2022-09-19T00:50:36;100923.44;;;23.46;55.60
63033;BME280;49121;38.932;-9.018;2022-09-19T00:52:41;100922.69;;;23.30;56.32
63033;BME280;49121;38.932;-9.018;2022-09-19T00:54:44;100934.41;;;23.14;57.31
63033;BME280;49121;38.932;-9.018;2022-09-19T00:56:47;100938.00;;;22.99;57.93
63033;BME280;49121;38.932;-9.018;2022-09-19T00:58:49;100937.78;;;22.87;58.14
63033;BME280;49121;38.932;-9.018;2022-09-19T01:00:50;100946.59;;;22.75;58.85
63033;BME280;49121;38.932;-9.018;2022-09-19T01:02:51;100940.03;;;22.65;59.72
63033;BME280;49121;38.932;-9.018;2022-09-19T01:04:51;100938.00;;;22.54;59.94
63033;BME280;49121;38.932;-9.018;2022-09-19T01:13:51;100950.94;;;22.16;61.85
63033;BME280;49121;38.932;-9.018;2022-09-19T01:16:00;100949.75;;;22.05;62.16
63033;BME280;49121;38.932;-9.018;2022-09-19T01:18:02;100963.34;;;22.02;62.05
63033;BME280;49121;38.932;-9.018;2022-09-19T01:20:11;100952.84;;;21.98;62.24
63033;BME280;49121;38.932;-9.018;2022-09-19T01:22:53;100959.25;;;21.95;62.49
63033;BME280;49121;38.932;-9.018;2022-09-19T01:24:46;100959.59;;;21.89;64.10
63033;BME280;49121;38.932;-9.018;2022-09-19T01:26:57;100970.78;;;21.81;64.89
63033;BME280;49121;38.932;-9.018;2022-09-19T01:29:09;100971.19;;;21.74;65.28
63033;BME280;49121;38.932;-9.018;2022-09-19T01:31:17;100972.63;;;21.63;65.81
63033;BME280;49121;38.932;-9.018;2022-09-19T01:33:23;100979.03;;;21.61;65.85
63033;BME280;49121;38.932;-9.018;2022-09-19T01:35:27;100975.56;;;21.59;66.00
63033;BME280;49121;38.932;-9.018;2022-09-19T01:37:31;100966.34;;;21.64;66.17
63033;BME280;49121;38.932;-9.018;2022-09-19T01:39:34;100967.72;;;21.56;66.41
63033;BME280;49121;38.932;-9.018;2022-09-19T01:41:38;100956.00;;;21.41;67.76
63033;BME280;49121;38.932;-9.018;2022-09-19T01:43:39;100960.91;;;21.33;68.09
63033;BME280;49121;38.932;-9.018;2022-09-19T01:45:40;100960.56;;;21.23;68.03
63033;BME280;49121;38.932;-9.018;2022-09-19T01:48:16;100961.66;;;21.19;68.18
63033;BME280;49121;38.932;-9.018;2022-09-19T01:50:12;100957.22;;;21.18;68.01
63033;BME280;49121;38.932;-9.018;2022-09-19T01:52:29;100945.50;;;21.20;68.60
63033;BME280;49121;38.932;-9.018;2022-09-19T01:54:48;100953.00;;;21.14;69.29
63033;BME280;49121;38.932;-9.018;2022-09-19T01:58:54;100952.69;;;21.02;70.16
63033;BME280;49121;38.932;-9.018;2022-09-19T02:01:05;100961.06;;;20.96;70.22
63033;BME280;49121;38.932;-9.018;2022-09-19T02:03:14;100962.88;;;20.96;69.92
63033;BME280;49121;38.932;-9.018;2022-09-19T02:09:53;100944.78;;;20.83;71.45
63033;BME280;49121;38.932;-9.018;2022-09-19T02:12:00;100956.81;;;20.75;71.59
63033;BME280;49121;38.932;-9.018;2022-09-19T02:14:09;100950.84;;;20.70;71.89
63033;BME280;49121;38.932;-9.018;2022-09-19T02:16:22;100952.81;;;20.66;71.87
63033;BME280;49121;38.932;-9.018;2022-09-19T02:18:28;100944.63;;;20.69;72.04
63033;BME280;49121;38.932;-9.018;2022-09-19T02:20:33;100949.34;;;20.64;72.14
63033;BME280;49121;38.932;-9.018;2022-09-19T02:25:15;100940.59;;;20.60;72.81
63033;BME280;49121;38.932;-9.018;2022-09-19T02:27:21;100945.09;;;20.60;72.56
63033;BME280;49121;38.932;-9.018;2022-09-19T02:29:25;100941.63;;;20.58;72.37
63033;BME280;49121;38.932;-9.018;2022-09-19T02:31:32;100941.91;;;20.52;73.04
63033;BME280;49121;38.932;-9.018;2022-09-19T02:33:36;100936.66;;;20.50;72.83
63033;BME280;49121;38.932;-9.018;2022-09-19T02:35:43;100942.00;;;20.50;73.08
63033;BME280;49121;38.932;-9.018;2022-09-19T02:37:47;100941.28;;;20.47;73.02
63033;BME280;49121;38.932;-9.018;2022-09-19T02:40:03;100939.41;;;20.49;73.00
63033;BME280;49121;38.932;-9.018;2022-09-19T02:42:18;100936.72;;;20.49;72.94
63033;BME280;49121;38.932;-9.018;2022-09-19T02:44:35;100942.09;;;20.49;73.00
63033;BME280;49121;38.932;-9.018;2022-09-19T02:49:14;100941.00;;;20.53;72.27
63033;BME280;49121;38.932;-9.018;2022-09-19T02:53:24;100955.28;;;20.52;73.01
63033;BME280;49121;38.932;-9.018;2022-09-19T02:58:26;100949.88;;;20.53;73.42
63033;BME280;49121;38.932;-9.018;2022-09-19T03:00:28;100948.91;;;20.54;72.98
63033;BME280;49121;38.932;-9.018;2022-09-19T03:02:38;100959.50;;;20.57;73.01
63033;BME280;49121;38.932;-9.018;2022-09-19T03:07:08;100951.50;;;20.56;73.47
63033;BME280;49121;38.932;-9.018;2022-09-19T03:09:22;100955.16;;;20.55;73.93
63033;BME280;49121;38.932;-9.018;2022-09-19T03:11:25;100950.72;;;20.54;73.94
63033;BME280;49121;38.932;-9.018;2022-09-19T03:13:28;100953.56;;;20.51;74.17
63033;BME280;49121;38.932;-9.018;2022-09-19T03:15:32;100952.78;;;20.49;74.35
63033;BME280;49121;38.932;-9.018;2022-09-19T03:17:37;100939.47;;;20.47;74.10
63033;BME280;49121;38.932;-9.018;2022-09-19T03:19:44;100944.81;;;20.47;73.56
63033;BME280;49121;38.932;-9.018;2022-09-19T03:24:06;100944.75;;;20.49;73.60
63033;BME280;49121;38.932;-9.018;2022-09-19T03:26:11;100942.09;;;20.49;73.54
63033;BME280;49121;38.932;-9.018;2022-09-19T03:28:12;100947.44;;;20.49;73.54
63033;BME280;49121;38.932;-9.018;2022-09-19T03:32:37;100957.16;;;20.50;73.40
63033;BME280;49121;38.932;-9.018;2022-09-19T03:34:40;100955.53;;;20.47;73.62
63033;BME280;49121;38.932;-9.018;2022-09-19T03:36:43;100947.75;;;20.42;73.96
63033;BME280;49121;38.932;-9.018;2022-09-19T03:38:48;100945.78;;;20.46;73.94
63033;BME280;49121;38.932;-9.018;2022-09-19T03:40:52;100942.78;;;20.52;73.58
63033;BME280;49121;38.932;-9.018;2022-09-19T03:42:52;100948.22;;;20.51;73.85
63033;BME280;49121;38.932;-9.018;2022-09-19T03:44:55;100944.28;;;20.40;74.21
63033;BME280;49121;38.932;-9.018;2022-09-19T03:46:56;100936.63;;;20.33;74.30
63033;BME280;49121;38.932;-9.018;2022-09-19T03:48:58;100942.22;;;20.28;75.03
63033;BME280;49121;38.932;-9.018;2022-09-19T03:51:01;100959.44;;;20.22;75.26
63033;BME280;49121;38.932;-9.018;2022-09-19T03:53:02;100951.56;;;20.19;75.35
63033;BME280;49121;38.932;-9.018;2022-09-19T03:57:23;100956.84;;;20.21;75.33
63033;BME280;49121;38.932;-9.018;2022-09-19T03:59:24;100954.66;;;20.29;74.55
63033;BME280;49121;38.932;-9.018;2022-09-19T04:01:25;100949.63;;;20.40;74.00
63033;BME280;49121;38.932;-9.018;2022-09-19T04:03:28;100957.16;;;20.50;73.30
63033;BME280;49121;38.932;-9.018;2022-09-19T04:05:28;100958.97;;;20.49;73.52
63033;BME280;49121;38.932;-9.018;2022-09-19T04:07:29;100957.41;;;20.45;73.87
63033;BME280;49121;38.932;-9.018;2022-09-19T04:09:30;100954.09;;;20.40;74.49
63033;BME280;49121;38.932;-9.018;2022-09-19T04:11:33;100955.44;;;20.31;74.97
63033;BME280;49121;38.932;-9.018;2022-09-19T04:13:34;100957.91;;;20.17;75.25
63033;BME280;49121;38.932;-9.018;2022-09-19T04:15:47;100961.75;;;20.11;76.05
63033;BME280;49121;38.932;-9.018;2022-09-19T04:18:06;100967.03;;;20.13;75.84
63033;BME280;49121;38.932;-9.018;2022-09-19T04:20:07;100966.47;;;20.06;76.18
63033;BME280;49121;38.932;-9.018;2022-09-19T04:22:37;100975.72;;;19.99;76.98
63033;BME280;49121;38.932;-9.018;2022-09-19T04:25:04;100968.00;;;19.93;77.17
63033;BME280;49121;38.932;-9.018;2022-09-19T04:32:29;100954.22;;;19.83;77.75
63033;BME280;49121;38.932;-9.018;2022-09-19T04:34:30;100965.91;;;19.80;78.08
63033;BME280;49121;38.932;-9.018;2022-09-19T04:36:31;100968.59;;;19.80;78.30
63033;BME280;49121;38.932;-9.018;2022-09-19T04:38:33;100974.09;;;19.77;78.66
63033;BME280;49121;38.932;-9.018;2022-09-19T04:40:42;100981.09;;;19.80;78.43
63033;BME280;49121;38.932;-9.018;2022-09-19T04:42:42;100984.44;;;19.84;78.23
63033;BME280;49121;38.932;-9.018;2022-09-19T04:47:46;101002.22;;;19.85;78.02
63033;BME280;49121;38.932;-9.018;2022-09-19T04:49:47;101005.91;;;19.82;78.33
63033;BME280;49121;38.932;-9.018;2022-09-19T04:51:48;101007.78;;;19.80;78.32
63033;BME280;49121;38.932;-9.018;2022-09-19T04:53:48;101016.88;;;19.76;78.60
63033;BME280;49121;38.932;-9.018;2022-09-19T04:55:51;101003.53;;;19.76;78.84
63033;BME280;49121;38.932;-9.018;2022-09-19T04:57:53;101005.97;;;19.80;78.76
63033;BME280;49121;38.932;-9.018;2022-09-19T05:02:55;101010.38;;;19.81;78.55
63033;BME280;49121;38.932;-9.018;2022-09-19T05:04:57;101018.19;;;19.86;78.23
63033;BME280;49121;38.932;-9.018;2022-09-19T05:07:02;101016.50;;;19.84;78.42
63033;BME280;49121;38.932;-9.018;2022-09-19T05:09:04;101012.69;;;19.89;78.68
63033;BME280;49121;38.932;-9.018;2022-09-19T05:11:07;101005.75;;;19.85;78.94
63033;BME280;49121;38.932;-9.018;2022-09-19T05:13:10;101007.38;;;19.69;79.44
63033;BME280;49121;38.932;-9.018;2022-09-19T05:15:11;101006.72;;;19.64;79.78
63033;BME280;49121;38.932;-9.018;2022-09-19T05:19:32;101004.63;;;19.51;81.01
63033;BME280;49121;38.932;-9.018;2022-09-19T05:21:33;101009.97;;;19.51;81.28
63033;BME280;49121;38.932;-9.018;2022-09-19T05:23:36;101014.38;;;19.52;81.19
63033;BME280;49121;38.932;-9.018;2022-09-19T05:30:23;101017.66;;;19.38;82.84
63033;BME280;49121;38.932;-9.018;2022-09-19T05:32:27;101022.19;;;19.36;82.68
63033;BME280;49121;38.932;-9.018;2022-09-19T05:34:57;101023.41;;;19.29;83.55
63033;BME280;49121;38.932;-9.018;2022-09-19T05:37:32;101023.22;;;19.34;83.59
63033;BME280;49121;38.932;-9.018;2022-09-19T05:39:50;101023.22;;;19.34;83.95
63033;BME280;49121;38.932;-9.018;2022-09-19T05:42:00;101026.72;;;19.34;84.08
63033;BME280;49121;38.932;-9.018;2022-09-19T05:46:45;101034.63;;;19.37;84.30
63033;BME280;49121;38.932;-9.018;2022-09-19T05:48:48;101032.75;;;19.39;84.50
63033;BME280;49121;38.932;-9.018;2022-09-19T05:50:49;101034.41;;;19.42;84.20
63033;BME280;49121;38.932;-9.018;2022-09-19T05:52:57;101037.16;;;19.40;84.25
63033;BME280;49121;38.932;-9.018;2022-09-19T05:55:16;101033.81;;;19.35;84.83
63033;BME280;49121;38.932;-9.018;2022-09-19T05:57:22;101044.50;;;19.35;85.15
63033;BME280;49121;38.932;-9.018;2022-09-19T05:59:23;101041.84;;;19.35;85.02
63033;BME280;49121;38.932;-9.018;2022-09-19T06:03:54;101049.63;;;19.40;85.22
63033;BME280;49121;38.932;-9.018;2022-09-19T06:05:57;101053.16;;;19.40;85.25
63033;BME280;49121;38.932;-9.018;2022-09-19T06:07:58;101055.78;;;19.42;85.08
63033;BME280;49121;38.932;-9.018;2022-09-19T06:09:59;101059.41;;;19.41;85.16
63033;BME280;49121;38.932;-9.018;2022-09-19T06:12:01;101068.19;;;19.43;85.32
63033;BME280;49121;38.932;-9.018;2022-09-19T06:14:19;101066.25;;;19.47;85.09
63033;BME280;49121;38.932;-9.018;2022-09-19T06:16:24;101069.78;;;19.47;85.11
63033;BME280;49121;38.932;-9.018;2022-09-19T06:19:03;101074.19;;;19.48;85.10
63033;BME280;49121;38.932;-9.018;2022-09-19T06:21:07;101077.88;;;19.46;85.33
63033;BME280;49121;38.932;-9.018;2022-09-19T06:23:26;101079.53;;;19.48;85.21
63033;BME280;49121;38.932;-9.018;2022-09-19T06:25:45;101080.53;;;19.46;85.62
63033;BME280;49121;38.932;-9.018;2022-09-19T06:28:07;101079.84;;;19.40;86.12
63033;BME280;49121;38.932;-9.018;2022-09-19T06:30:14;101084.59;;;19.34;86.49
63033;BME280;49121;38.932;-9.018;2022-09-19T06:34:57;101082.09;;;19.31;86.90
63033;BME280;49121;38.932;-9.018;2022-09-19T06:37:00;101082.13;;;19.29;87.31
63033;BME280;49121;38.932;-9.018;2022-09-19T06:39:00;101087.38;;;19.32;87.30
63033;BME280;49121;38.932;-9.018;2022-09-19T06:41:13;101089.94;;;19.34;87.44
63033;BME280;49121;38.932;-9.018;2022-09-19T06:43:35;101087.97;;;19.39;87.23
63033;BME280;49121;38.932;-9.018;2022-09-19T06:45:36;101093.81;;;19.47;87.13
63033;BME280;49121;38.932;-9.018;2022-09-19T06:48:01;101102.28;;;19.57;86.62
63033;BME280;49121;38.932;-9.018;2022-09-19T06:50:20;101099.19;;;19.66;86.23
63033;BME280;49121;38.932;-9.018;2022-09-19T06:52:44;101105.69;;;19.81;85.92
63033;BME280;49121;38.932;-9.018;2022-09-19T06:54:45;101110.53;;;19.92;85.72
63033;BME280;49121;38.932;-9.018;2022-09-19T06:56:52;101108.97;;;20.07;85.62
63033;BME280;49121;38.932;-9.018;2022-09-19T06:58:53;101108.06;;;20.27;84.89
63033;BME280;49121;38.932;-9.018;2022-09-19T07:00:58;101112.44;;;20.47;84.08
63033;BME280;49121;38.932;-9.018;2022-09-19T07:03:04;101096.00;;;20.73;82.41
63033;BME280;49121;38.932;-9.018;2022-09-19T07:05:06;101102.97;;;21.12;81.58
63033;BME280;49121;38.932;-9.018;2022-09-19T07:07:23;101114.25;;;21.71;79.21
63033;BME280;49121;38.932;-9.018;2022-09-19T07:09:27;101121.41;;;22.37;77.37
63033;BME280;49121;38.932;-9.018;2022-09-19T07:11:28;101111.38;;;23.03;74.20
63033;BME280;49121;38.932;-9.018;2022-09-19T07:13:29;101121.38;;;23.45;72.21
63033;BME280;49121;38.932;-9.018;2022-09-19T07:15:34;101128.69;;;23.58;70.81
63033;BME280;49121;38.932;-9.018;2022-09-19T07:18:00;101125.25;;;23.56;70.14
63033;BME280;49121;38.932;-9.018;2022-09-19T07:20:03;101126.59;;;23.48;69.88
63033;BME280;49121;38.932;-9.018;2022-09-19T07:22:28;101126.75;;;23.45;70.05
63033;BME280;49121;38.932;-9.018;2022-09-19T07:25:02;101134.66;;;23.48;69.76
63033;BME280;49121;38.932;-9.018;2022-09-19T07:27:06;101143.25;;;23.84;69.27
63033;BME280;49121;38.932;-9.018;2022-09-19T07:29:07;101150.63;;;24.52;67.42
63033;BME280;49121;38.932;-9.018;2022-09-19T07:31:08;101156.16;;;25.05;65.00
63033;BME280;49121;38.932;-9.018;2022-09-19T07:33:13;101148.38;;;25.27;63.57
63033;BME280;49121;38.932;-9.018;2022-09-19T07:35:14;101163.53;;;25.68;61.83
63033;BME280;49121;38.932;-9.018;2022-09-19T07:37:18;101164.22;;;26.10;61.77
63033;BME280;49121;38.932;-9.018;2022-09-19T07:39:25;101169.31;;;26.39;61.45
63033;BME280;49121;38.932;-9.018;2022-09-19T07:41:41;101166.31;;;26.44;63.25
63033;BME280;49121;38.932;-9.018;2022-09-19T07:44:03;101168.25;;;26.55;63.22
63033;BME280;49121;38.932;-9.018;2022-09-19T07:46:23;101165.75;;;26.51;64.29
63033;BME280;49121;38.932;-9.018;2022-09-19T07:48:48;101167.38;;;26.41;64.34
63033;BME280;49121;38.932;-9.018;2022-09-19T07:50:56;101167.66;;;26.13;65.18
63033;BME280;49121;38.932;-9.018;2022-09-19T07:53:10;101163.47;;;25.96;67.21
63033;BME280;49121;38.932;-9.018;2022-09-19T07:55:12;101173.53;;;26.43;65.82
63033;BME280;49121;38.932;-9.018;2022-09-19T07:57:14;101177.09;;;26.93;63.65
63033;BME280;49121;38.932;-9.018;2022-09-19T07:59:18;101180.69;;;26.57;63.90
63033;BME280;49121;38.932;-9.018;2022-09-19T08:01:28;101182.94;;;26.50;64.60
63033;BME280;49121;38.932;-9.018;2022-09-19T08:03:31;101184.66;;;26.88;63.25
63033;BME280;49121;38.932;-9.018;2022-09-19T08:05:34;101198.94;;;27.39;61.31
63033;BME280;49121;38.932;-9.018;2022-09-19T08:07:36;101202.56;;;27.26;61.15
63033;BME280;49121;38.932;-9.018;2022-09-19T08:09:37;101209.13;;;27.11;61.34
63033;BME280;49121;38.932;-9.018;2022-09-19T08:11:48;101213.78;;;27.09;61.47
63033;BME280;49121;38.932;-9.018;2022-09-19T08:13:49;101211.06;;;27.09;61.30
63033;BME280;49121;38.932;-9.018;2022-09-19T08:15:50;101219.59;;;26.79;61.88
63033;BME280;49121;38.932;-9.018;2022-09-19T08:17:58;101213.84;;;26.34;62.59
63033;BME280;49121;38.932;-9.018;2022-09-19T08:19:59;101212.63;;;25.86;64.56
63033;BME280;49121;38.932;-9.018;2022-09-19T08:22:08;101213.97;;;25.41;66.46
63033;BME280;49121;38.932;-9.018;2022-09-19T08:24:18;101204.34;;;25.37;67.01
63033;BME280;49121;38.932;-9.018;2022-09-19T08:26:20;101219.22;;;25.42;66.97
63033;BME280;49121;38.932;-9.018;2022-09-19T08:28:21;101217.16;;;25.33;65.04
63033;BME280;49121;38.932;-9.018;2022-09-19T08:30:26;101226.44;;;25.82;64.16
63033;BME280;49121;38.932;-9.018;2022-09-19T08:32:32;101227.44;;;26.32;61.19
63033;BME280;49121;38.932;-9.018;2022-09-19T08:34:33;101242.78;;;26.57;60.18
63033;BME280;49121;38.932;-9.018;2022-09-19T08:36:35;101240.50;;;26.38;60.28
63033;BME280;49121;38.932;-9.018;2022-09-19T08:38:37;101254.06;;;26.75;59.23
63033;BME280;49121;38.932;-9.018;2022-09-19T08:42:48;101252.81;;;26.42;60.89
63033;BME280;49121;38.932;-9.018;2022-09-19T08:51:10;101250.88;;;26.19;62.73
63033;BME280;49121;38.932;-9.018;2022-09-19T08:53:16;101256.25;;;26.44;61.62
63033;BME280;49121;38.932;-9.018;2022-09-19T08:55:27;101265.41;;;27.65;58.12
63033;BME280;49121;38.932;-9.018;2022-09-19T08:57:38;101264.34;;;28.14;56.58
63033;BME280;49121;38.932;-9.018;2022-09-19T08:59:47;101270.16;;;28.89;55.70
63033;BME280;49121;38.932;-9.018;2022-09-19T09:01:53;101263.44;;;28.61;55.21
63033;BME280;49121;38.932;-9.018;2022-09-19T09:04:01;101268.19;;;28.91;54.35
63033;BME280;49121;38.932;-9.018;2022-09-19T09:10:57;101283.31;;;29.05;54.30
63033;BME280;49121;38.932;-9.018;2022-09-19T09:17:18;101295.94;;;30.24;52.17
63033;BME280;49121;38.932;-9.018;2022-09-19T09:30:27;101302.56;;;28.90;51.37
63033;BME280;49121;38.932;-9.018;2022-09-19T09:32:38;101298.56;;;29.28;50.50
63033;BME280;49121;38.932;-9.018;2022-09-19T09:34:51;101312.34;;;29.69;49.89
63033;BME280;49121;38.932;-9.018;2022-09-19T09:37:20;101312.47;;;29.46;49.97
63033;BME280;49121;38.932;-9.018;2022-09-19T09:39:36;101306.75;;;30.35;48.40
63033;BME280;49121;38.932;-9.018;2022-09-19T09:42:01;101309.25;;;29.85;49.25
63033;BME280;49121;38.932;-9.018;2022-09-19T09:47:40;101312.66;;;29.22;50.62
63033;BME280;49121;38.932;-9.018;2022-09-19T09:49:27;101306.88;;;28.93;51.63
63033;BME280;49121;38.932;-9.018;2022-09-19T09:56:45;101304.09;;;27.79;53.42
63033;BME280;49121;38.932;-9.018;2022-09-19T09:59:08;101316.72;;;27.78;53.58
63033;BME280;49121;38.932;-9.018;2022-09-19T10:01:52;101324.50;;;27.59;54.42
63033;BME280;49121;38.932;-9.018;2022-09-19T10:06:57;101325.16;;;27.86;53.89
63033;BME280;49121;38.932;-9.018;2022-09-19T10:09:22;101324.78;;;27.91;53.51
63033;BME280;49121;38.932;-9.018;2022-09-19T10:13:55;101327.72;;;28.23;53.35
63033;BME280;49121;38.932;-9.018;2022-09-19T10:16:05;101325.28;;;28.43;52.64
63033;BME280;49121;38.932;-9.018;2022-09-19T10:18:26;101330.41;;;28.70;52.29
63033;BME280;49121;38.932;-9.018;2022-09-19T10:20:44;101326.31;;;28.98;51.33
63033;BME280;49121;38.932;-9.018;2022-09-19T10:22:51;101315.63;;;28.97;51.21
63033;BME280;49121;38.932;-9.018;2022-09-19T10:25:17;101321.78;;;28.99;50.91
63033;BME280;49121;38.932;-9.018;2022-09-19T10:32:14;101322.34;;;28.34;53.66
63033;BME280;49121;38.932;-9.018;2022-09-19T10:34:45;101316.38;;;28.65;52.87
63033;BME280;49121;38.932;-9.018;2022-09-19T10:37:02;101314.78;;;28.62;52.10
63033;BME280;49121;38.932;-9.018;2022-09-19T10:39:22;101317.47;;;28.73;51.76
63033;BME280;49121;38.932;-9.018;2022-09-19T10:41:36;101331.63;;;29.22;51.22
63033;BME280;49121;38.932;-9.018;2022-09-19T10:43:50;101340.59;;;29.34;50.33
63033;BME280;49121;38.932;-9.018;2022-09-19T10:45:53;101314.00;;;29.17;50.22
63033;BME280;49121;38.932;-9.018;2022-09-19T10:48:09;101337.09;;;29.43;50.43
63033;BME280;49121;38.932;-9.018;2022-09-19T10:50:15;101321.91;;;29.52;49.84
63033;BME280;49121;38.932;-9.018;2022-09-19T10:52:28;101333.66;;;29.52;49.74
63033;BME280;49121;38.932;-9.018;2022-09-19T10:54:40;101328.28;;;29.62;50.00
63033;BME280;49121;38.932;-9.018;2022-09-19T10:56:43;101337.47;;;29.93;49.25
63033;BME280;49121;38.932;-9.018;2022-09-19T10:58:45;101332.69;;;30.07;48.62
63033;BME280;49121;38.932;-9.018;2022-09-19T11:01:01;101321.34;;;30.23;49.70
63033;BME280;49121;38.932;-9.018;2022-09-19T11:03:28;101332.78;;;29.84;49.82
63033;BME280;49121;38.932;-9.018;2022-09-19T11:05:35;101329.38;;;29.82;49.95
63033;BME280;49121;38.932;-9.018;2022-09-19T11:07:48;101320.81;;;29.54;50.60
63033;BME280;49121;38.932;-9.018;2022-09-19T11:09:54;101323.16;;;29.48;50.77
63033;BME280;49121;38.932;-9.018;2022-09-19T11:12:14;101332.03;;;29.50;51.03
63033;BME280;49121;38.932;-9.018;2022-09-19T11:14:37;101331.88;;;29.74;50.16
63033;BME280;49121;38.932;-9.018;2022-09-19T11:17:27;101330.25;;;28.94;51.99
63033;BME280;49121;38.932;-9.018;2022-09-19T11:25:04;101319.13;;;30.49;48.64
63033;BME280;49121;38.932;-9.018;2022-09-19T11:29:35;101337.28;;;29.63;50.09
63033;BME280;49121;38.932;-9.018;2022-09-19T11:31:53;101326.47;;;30.16;48.47
63033;BME280;49121;38.932;-9.018;2022-09-19T11:34:28;101330.38;;;30.02;49.32
63033;BME280;49121;38.932;-9.018;2022-09-19T11:46:24;101325.34;;;29.65;50.12
63033;BME280;49121;38.932;-9.018;2022-09-19T11:48:50;101281.44;;;29.60;48.82
63033;BME280;49121;38.932;-9.018;2022-09-19T11:51:05;101330.78;;;29.98;49.45
63033;BME280;49121;38.932;-9.018;2022-09-19T11:56:49;101330.16;;;29.94;49.45
63033;BME280;49121;38.932;-9.018;2022-09-19T11:59:35;101331.25;;;30.45;47.73
63033;BME280;49121;38.932;-9.018;2022-09-19T12:06:32;101339.31;;;31.17;45.60
63033;BME280;49121;38.932;-9.018;2022-09-19T12:11:06;101332.22;;;31.55;45.09
63033;BME280;49121;38.932;-9.018;2022-09-19T12:13:15;101336.13;;;31.03;45.80
63033;BME280;49121;38.932;-9.018;2022-09-19T12:15:25;101323.81;;;30.98;46.18
63033;BME280;49121;38.932;-9.018;2022-09-19T12:17:35;101319.22;;;31.59;44.27
63033;BME280;49121;38.932;-9.018;2022-09-19T12:22:32;101330.69;;;32.02;43.20
63033;BME280;49121;38.932;-9.018;2022-09-19T12:25:20;101327.97;;;31.82;43.22
63033;BME280;49121;38.932;-9.018;2022-09-19T12:27:31;101334.59;;;31.29;44.59
63033;BME280;49121;38.932;-9.018;2022-09-19T12:31:45;101328.41;;;31.77;43.66
63033;BME280;49121;38.932;-9.018;2022-09-19T12:33:58;101322.66;;;31.90;43.73
63033;BME280;49121;38.932;-9.018;2022-09-19T12:36:30;101334.41;;;32.01;42.89
63033;BME280;49121;38.932;-9.018;2022-09-19T12:38:40;101325.38;;;32.00;42.47
63033;BME280;49121;38.932;-9.018;2022-09-19T12:41:20;101326.81;;;31.85;42.92
63033;BME280;49121;38.932;-9.018;2022-09-19T12:43:45;101326.25;;;32.10;42.56
63033;BME280;49121;38.932;-9.018;2022-09-19T12:45:59;101323.38;;;31.73;43.06
63033;BME280;49121;38.932;-9.018;2022-09-19T12:49:08;101314.91;;;31.66;43.45
63033;BME280;49121;38.932;-9.018;2022-09-19T12:51:13;101321.72;;;31.31;44.59
63033;BME280;49121;38.932;-9.018;2022-09-19T12:53:32;101322.19;;;30.65;45.65
63033;BME280;49121;38.932;-9.018;2022-09-19T12:55:40;101329.25;;;30.98;45.41
63033;BME280;49121;38.932;-9.018;2022-09-19T12:57:55;101325.22;;;31.53;43.51
63033;BME280;49121;38.932;-9.018;2022-09-19T12:59:58;101326.78;;;31.75;43.24
63033;BME280;49121;38.932;-9.018;2022-09-19T13:06:49;101316.06;;;31.64;42.70
63033;BME280;49121;38.932;-9.018;2022-09-19T13:09:08;101321.50;;;31.54;43.01
63033;BME280;49121;38.932;-9.018;2022-09-19T13:11:27;101319.22;;;31.88;42.23
63033;BME280;49121;38.932;-9.018;2022-09-19T13:14:31;101313.06;;;31.86;42.79
63033;BME280;49121;38.932;-9.018;2022-09-19T13:16:16;101309.19;;;31.59;43.14
63033;BME280;49121;38.932;-9.018;2022-09-19T13:18:44;101311.56;;;31.24;43.98
63033;BME280;49121;38.932;-9.018;2022-09-19T13:21:13;101313.56;;;31.22;44.40
63033;BME280;49121;38.932;-9.018;2022-09-19T13:23:33;101312.19;;;31.76;43.30
63033;BME280;49121;38.932;-9.018;2022-09-19T13:25:55;101319.50;;;32.14;42.15
63033;BME280;49121;38.932;-9.018;2022-09-19T13:32:56;101313.97;;;32.91;41.54
63033;BME280;49121;38.932;-9.018;2022-09-19T13:41:57;101306.41;;;31.40;42.28
63033;BME280;49121;38.932;-9.018;2022-09-19T13:46:06;101295.00;;;30.86;44.08
63033;BME280;49121;38.932;-9.018;2022-09-19T13:48:28;101294.63;;;31.10;43.70
63033;BME280;49121;38.932;-9.018;2022-09-19T13:50:32;101288.50;;;31.28;43.69
63033;BME280;49121;38.932;-9.018;2022-09-19T13:52:40;101287.84;;;31.45;43.38